Time;durP1;ratioP1;P1;durP2;ratioP2;P2;SDS_P1;SDS_P2;PMS_P1;PMS_P2;Temp;Humidity;BMP_temperature;BMP_pressure;BME280_temperature;BME280_humidity;BME280_pressure;Samples;Min_cycle;Max_cycle;Signal;HPM_P1;HPM_P2
2021/10/28 00:13:40;;;;;;;7.78;4.72;;;27.30;99.90;;;;;;5075844;28;20079;-74
2021/10/28 00:16:19;;;;;;;7.00;4.30;;;27.40;99.90;;;;;;5075956;28;20021;-74
2021/10/28 00:18:49;;;;;;;7.43;4.53;;;27.90;99.90;;;;;;5075322;28;20040;-74
2021/10/28 00:21:17;;;;;;;7.57;4.70;;;28.10;99.90;;;;;;5075889;28;20025;-73
2021/10/28 00:23:48;;;;;;;6.40;4.32;;;28.10;99.90;;;;;;5075583;28;20021;-73
2021/10/28 00:26:16;;;;;;;8.82;4.25;;;28.20;99.90;;;;;;5074139;28;20052;-74
2021/10/28 00:28:44;;;;;;;10.18;4.75;;;28.40;99.90;;;;;;5075454;28;20469;-73
2021/10/28 00:31:12;;;;;;;8.57;4.70;;;28.60;99.90;;;;;;5075309;28;20020;-73
2021/10/28 00:33:39;;;;;;;6.65;4.60;;;28.60;99.90;;;;;;5075488;28;20028;-74
2021/10/28 00:36:07;;;;;;;7.47;4.35;;;28.70;99.90;;;;;;5075329;28;20024;-74
2021/10/28 00:38:35;;;;;;;6.80;3.58;;;28.90;99.90;;;;;;5075244;28;20032;-74
2021/10/28 00:41:03;;;;;;;3.88;3.15;;;29.70;99.00;;;;;;5075414;28;20024;-74
2021/10/28 00:43:32;;;;;;;4.82;3.28;;;29.70;97.90;;;;;;5073856;28;20043;-74
2021/10/28 00:46:01;;;;;;;7.30;4.00;;;29.60;97.80;;;;;;5075033;28;20028;-74
2021/10/28 00:48:28;;;;;;;4.40;3.60;;;29.30;98.70;;;;;;5073738;28;20107;-74
2021/10/28 00:50:56;;;;;;;4.97;3.05;;;29.00;99.40;;;;;;5073573;28;20269;-73
2021/10/28 00:53:23;;;;;;;4.45;2.50;;;29.10;97.10;;;;;;5075069;28;20020;-74
2021/10/28 00:55:54;;;;;;;4.13;3.15;;;29.40;95.30;;;;;;5074806;28;20452;-72
2021/10/28 00:58:24;;;;;;;5.88;2.67;;;29.40;95.00;;;;;;5074876;28;20025;-71
2021/10/28 01:00:52;;;;;;;5.10;3.05;;;29.40;92.70;;;;;;5074866;28;20137;-71
2021/10/28 01:03:21;;;;;;;6.38;3.85;;;29.20;95.10;;;;;;5074767;28;20037;-74
2021/10/28 01:05:49;;;;;;;5.18;3.80;;;29.10;96.00;;;;;;5074568;28;20115;-73
2021/10/28 01:08:16;;;;;;;6.72;3.42;;;29.50;96.70;;;;;;5074605;28;20021;-74
2021/10/28 01:10:49;;;;;;;6.60;4.00;;;30.10;95.70;;;;;;5074571;28;20477;-74
2021/10/28 01:13:18;;;;;;;5.65;3.22;;;30.60;95.10;;;;;;5073311;28;20021;-75
2021/10/28 01:15:47;;;;;;;6.13;3.70;;;30.90;93.10;;;;;;5074539;28;20032;-75
2021/10/28 01:18:16;;;;;;;4.78;3.70;;;31.20;92.90;;;;;;5073169;28;20425;-75
2021/10/28 01:20:46;;;;;;;4.93;3.75;;;30.90;91.10;;;;;;5074628;28;20443;-74
2021/10/28 01:23:15;;;;;;;7.20;3.50;;;30.70;91.00;;;;;;5074535;28;20021;-74
2021/10/28 01:25:55;;;;;;;3.83;2.70;;;30.50;91.00;;;;;;5073056;28;20481;-74
2021/10/28 01:28:23;;;;;;;;;;;30.70;90.00;;;;;;5074860;28;20021;-74
2021/10/28 01:30:53;;;;;;;4.60;2.95;;;31.20;88.50;;;;;;5072160;28;19904;-74
2021/10/28 01:33:21;;;;;;;4.30;2.80;;;31.00;90.30;;;;;;5074138;28;20021;-75
2021/10/28 01:35:49;;;;;;;3.78;3.10;;;30.80;90.00;;;;;;5074162;28;20085;-73
2021/10/28 01:38:18;;;;;;;5.93;3.70;;;30.90;89.50;;;;;;5072759;28;20025;-72
2021/10/28 01:41:03;;;;;;;5.40;4.20;;;31.40;91.60;;;;;;5072749;28;20437;-75
2021/10/28 01:43:32;;;;;;;4.95;3.90;;;31.60;92.00;;;;;;5074072;28;20370;-75
2021/10/28 01:46:00;;;;;;;6.35;3.63;;;31.70;92.60;;;;;;5074211;28;20028;-75
2021/10/28 01:48:27;;;;;;;5.28;3.38;;;32.20;89.30;;;;;;5072650;28;20028;-75
2021/10/28 01:50:55;;;;;;;4.32;3.40;;;32.10;87.90;;;;;;5073875;28;20027;-75
2021/10/28 01:53:22;;;;;;;6.78;4.25;;;32.30;88.00;;;;;;5073940;28;20024;-76
2021/10/28 01:55:50;;;;;;;7.57;4.03;;;32.10;91.40;;;;;;5074035;28;20033;-74
2021/10/28 01:58:22;;;;;;;6.68;4.10;;;31.70;91.80;;;;;;5072480;28;20024;-75
2021/10/28 02:00:51;;;;;;;6.80;4.40;;;31.50;91.80;;;;;;5073933;28;20028;-74
2021/10/28 02:03:19;;;;;;;8.63;4.10;;;31.30;93.00;;;;;;5073642;28;20020;-74
2021/10/28 02:05:48;;;;;;;7.35;4.40;;;31.20;93.30;;;;;;5072110;28;20028;-73
2021/10/28 02:08:15;;;;;;;7.63;4.57;;;31.40;93.50;;;;;;5073505;28;20036;-74
2021/10/28 02:10:43;;;;;;;8.45;4.72;;;31.60;94.40;;;;;;5073500;28;20100;-74
2021/10/28 02:13:12;;;;;;;8.45;4.50;;;31.50;94.40;;;;;;5073351;28;20021;-74
2021/10/28 02:15:40;;;;;;;10.85;4.88;;;31.30;94.70;;;;;;5073297;28;20366;-76
2021/10/28 02:18:08;;;;;;;10.15;5.03;;;31.20;95.10;;;;;;5073122;28;20512;-74
2021/10/28 02:20:35;;;;;;;9.98;5.43;;;30.90;95.00;;;;;;5073286;28;20025;-74
2021/10/28 02:23:03;;;;;;;8.57;4.90;;;30.80;96.90;;;;;;5073372;28;20428;-74
2021/10/28 02:25:30;;;;;;;10.38;5.13;;;30.90;97.40;;;;;;5073220;28;20029;-73
2021/10/28 02:27:58;;;;;;;9.48;4.75;;;31.00;97.20;;;;;;5073340;28;20529;-73
2021/10/28 02:30:27;;;;;;;5.57;4.53;;;31.10;97.70;;;;;;5073336;28;20048;-74
2021/10/28 02:32:54;;;;;;;7.57;4.55;;;31.30;97.10;;;;;;5071853;28;20078;-74
2021/10/28 02:35:22;;;;;;;9.90;5.15;;;31.20;96.80;;;;;;5073139;28;20024;-74
2021/10/28 02:37:49;;;;;;;7.85;4.53;;;31.30;96.80;;;;;;5071773;28;20048;-74
2021/10/28 02:40:17;;;;;;;9.23;5.05;;;31.10;96.50;;;;;;5073048;28;20012;-74
2021/10/28 02:42:44;;;;;;;8.68;5.25;;;30.90;97.00;;;;;;5071810;28;20362;-75
2021/10/28 02:45:13;;;;;;;5.70;5.10;;;30.80;98.00;;;;;;5073266;28;20021;-73
2021/10/28 02:47:40;;;;;;;10.00;5.20;;;30.70;97.50;;;;;;5073034;28;20069;-73
2021/10/28 02:50:08;;;;;;;8.57;4.93;;;30.80;98.10;;;;;;5073035;28;20020;-73
2021/10/28 02:52:35;;;;;;;9.02;4.75;;;30.90;97.60;;;;;;5071659;28;20020;-73
2021/10/28 02:55:05;;;;;;;7.78;4.90;;;30.80;96.90;;;;;;5072890;28;20142;-73
2021/10/28 02:57:32;;;;;;;6.00;4.80;;;30.60;97.60;;;;;;5072915;28;20020;-74
2021/10/28 03:00:00;;;;;;;10.57;5.10;;;30.80;97.30;;;;;;5072744;28;20261;-74
2021/10/28 03:02:28;;;;;;;5.95;4.63;;;30.80;97.00;;;;;;5072922;28;20396;-74
2021/10/28 03:04:55;;;;;;;9.73;4.80;;;31.00;96.80;;;;;;5071573;28;20036;-75
2021/10/28 03:07:23;;;;;;;8.38;4.40;;;30.90;97.50;;;;;;5072864;28;20028;-74
2021/10/28 03:09:50;;;;;;;10.32;4.50;;;31.50;96.70;;;;;;5071570;28;20474;-74
2021/10/28 03:12:18;;;;;;;6.03;4.28;;;31.20;97.30;;;;;;5071606;28;20024;-74
2021/10/28 03:14:52;;;;;;;7.68;4.68;;;31.20;96.50;;;;;;5072724;28;20023;-74
2021/10/28 03:27:48;;;;;;;6.80;4.32;;;31.40;95.90;;;;;;5072632;28;20020;-74
2021/10/28 03:30:15;;;;;;;5.45;4.22;;;31.30;95.60;;;;;;5071308;28;20385;-73
2021/10/28 03:32:43;;;;;;;6.68;4.40;;;31.50;95.10;;;;;;5071437;28;20051;-73
2021/10/28 03:35:14;;;;;;;8.98;4.38;;;31.70;96.10;;;;;;5072594;28;20105;-73
2021/10/28 03:37:51;;;;;;;7.07;4.45;;;31.60;95.70;;;;;;5072629;28;20024;-74
2021/10/28 04:18:03;;;;;;;5.47;3.45;;;31.60;90.10;;;;;;5075672;28;20044;-73
2021/10/28 04:28:55;;;;;;;5.75;3.72;;;29.90;91.10;;;;;;5064982;28;20044;-73
2021/10/28 04:31:28;;;;;;;5.07;3.97;;;29.50;91.90;;;;;;5074180;28;20068;-73
2021/10/28 04:33:58;;;;;;;4.63;3.50;;;29.40;91.40;;;;;;5075335;28;20052;-74
2021/10/28 04:36:30;;;;;;;4.68;3.35;;;29.40;91.50;;;;;;5075409;28;20021;-74
2021/10/28 04:39:04;;;;;;;5.03;3.60;;;29.30;91.20;;;;;;5075366;28;20063;-73
2021/10/28 04:41:31;;;;;;;7.90;4.38;;;29.00;91.10;;;;;;5074107;28;20074;-74
2021/10/28 04:43:58;;;;;;;5.80;3.67;;;29.20;92.30;;;;;;5075232;28;20133;-73
2021/10/28 04:46:26;;;;;;;7.10;4.20;;;29.30;92.50;;;;;;5075186;28;20501;-73
2021/10/28 04:48:53;;;;;;;5.90;3.42;;;29.10;91.90;;;;;;5075181;28;20406;-74
2021/10/28 04:51:21;;;;;;;6.93;4.20;;;28.90;91.90;;;;;;5075180;28;20417;-73
2021/10/28 04:53:48;;;;;;;5.47;4.00;;;28.70;92.70;;;;;;5075192;28;20020;-74
2021/10/28 04:56:16;;;;;;;7.10;4.30;;;28.80;93.50;;;;;;5073773;28;20432;-73
2021/10/28 04:58:43;;;;;;;4.57;4.10;;;28.70;92.70;;;;;;5074886;28;20028;-72
2021/10/28 05:01:11;;;;;;;5.47;4.00;;;28.40;92.50;;;;;;5073507;28;20027;-73
2021/10/28 05:03:38;;;;;;;6.30;4.70;;;28.60;92.40;;;;;;5074608;28;20423;-74
2021/10/28 05:06:05;;;;;;;6.90;3.90;;;28.50;93.20;;;;;;5073485;28;20109;-74
2021/10/28 05:08:34;;;;;;;7.20;3.83;;;28.70;93.00;;;;;;5074912;28;20021;-73
2021/10/28 05:11:02;;;;;;;6.97;4.35;;;28.70;93.20;;;;;;5074986;28;20412;-74
2021/10/28 05:13:30;;;;;;;6.88;4.30;;;28.70;93.00;;;;;;5073857;28;20035;-73
2021/10/28 05:15:59;;;;;;;7.63;4.57;;;28.50;93.00;;;;;;5074970;28;20029;-74
2021/10/28 05:18:26;;;;;;;4.43;3.72;;;28.50;92.60;;;;;;5073219;28;20140;-74
2021/10/28 05:20:55;;;;;;;6.28;4.00;;;28.30;93.00;;;;;;5074821;28;20020;-74
2021/10/28 05:23:23;;;;;;;6.45;4.35;;;28.50;92.70;;;;;;5074916;28;20108;-74
2021/10/28 05:25:50;;;;;;;8.85;4.30;;;28.40;92.70;;;;;;5074508;28;20029;-74
2021/10/28 05:28:18;;;;;;;6.97;4.40;;;28.30;93.20;;;;;;5074805;28;20016;-74
2021/10/28 05:30:45;;;;;;;9.43;4.70;;;28.20;93.00;;;;;;5074381;28;20111;-73
2021/10/28 05:33:15;;;;;;;;;;;28.10;93.70;;;;;;5073773;28;20128;-72
2021/10/28 05:35:42;;;;;;;7.60;4.40;;;28.20;93.40;;;;;;5072894;28;19970;-72
2021/10/28 05:38:10;;;;;;;5.72;4.13;;;28.00;93.90;;;;;;5074464;28;20048;-73
2021/10/28 05:40:37;;;;;;;9.85;4.60;;;28.00;93.00;;;;;;5074306;28;20116;-74
2021/10/28 05:43:06;;;;;;;7.13;4.47;;;27.90;92.80;;;;;;5074280;28;20051;-73
2021/10/28 05:45:35;;;;;;;4.93;3.83;;;27.80;92.80;;;;;;5074110;28;20035;-73
2021/10/28 05:48:03;;;;;;;6.25;4.13;;;27.90;92.80;;;;;;5074197;28;20016;-73
2021/10/28 05:50:30;;;;;;;5.50;4.35;;;28.10;92.50;;;;;;5074134;28;20020;-73
2021/10/28 05:52:59;;;;;;;6.10;4.15;;;28.20;92.90;;;;;;5074167;28;20103;-72
2021/10/28 05:55:27;;;;;;;6.22;3.75;;;28.40;92.80;;;;;;5074125;28;20414;-73
2021/10/28 05:57:55;;;;;;;5.65;4.30;;;29.30;93.10;;;;;;5073762;28;20081;-73
2021/10/28 06:00:25;;;;;;;6.65;4.07;;;29.80;92.20;;;;;;5074374;28;20013;-73
2021/10/28 06:02:53;;;;;;;5.13;4.18;;;29.70;91.20;;;;;;5072531;28;20016;-73
2021/10/28 06:05:22;;;;;;;5.53;3.90;;;29.50;91.50;;;;;;5073855;28;20021;-74
2021/10/28 06:07:49;;;;;;;6.07;3.58;;;29.20;91.30;;;;;;5073766;28;20031;-74
2021/10/28 06:10:18;;;;;;;4.60;3.72;;;29.00;91.30;;;;;;5073674;28;20021;-74
2021/10/28 06:12:49;;;;;;;5.22;3.75;;;28.90;91.50;;;;;;5073831;28;20064;-73
2021/10/28 06:15:17;;;;;;;5.85;3.65;;;28.70;91.40;;;;;;5072329;28;20111;-73
2021/10/28 06:17:54;;;;;;;6.07;3.50;;;28.60;91.20;;;;;;5072859;28;20048;-74
2021/10/28 06:20:22;;;;;;;6.88;3.83;;;28.50;91.60;;;;;;5073903;28;20020;-73
2021/10/28 06:22:50;;;;;;;4.50;4.07;;;28.40;91.60;;;;;;5073525;28;20033;-74
2021/10/28 06:25:20;;;;;;;5.10;3.45;;;28.30;91.90;;;;;;5073259;28;20024;-74
2021/10/28 06:27:47;;;;;;;4.83;4.00;;;28.30;91.70;;;;;;5073458;28;20016;-73
2021/10/28 06:30:15;;;;;;;6.43;4.00;;;28.20;91.20;;;;;;5073524;28;20020;-73
2021/10/28 06:32:45;;;;;;;7.07;3.50;;;28.30;91.40;;;;;;5073242;28;20547;-73
2021/10/28 06:35:12;;;;;;;5.40;4.00;;;28.30;91.30;;;;;;5073157;28;20044;-73
2021/10/28 06:37:45;;;;;;;5.82;3.65;;;28.20;90.90;;;;;;5073515;28;20029;-74
2021/10/28 06:40:13;;;;;;;5.93;3.50;;;28.10;91.40;;;;;;5071997;28;20112;-73
2021/10/28 06:42:41;;;;;;;4.97;3.70;;;28.20;91.60;;;;;;5071942;28;20052;-73
2021/10/28 06:45:08;;;;;;;3.97;3.50;;;28.10;91.10;;;;;;5072043;28;20024;-74
2021/10/28 06:47:36;;;;;;;4.35;3.90;;;27.80;91.50;;;;;;5073531;28;20538;-74
2021/10/28 06:50:11;;;;;;;5.25;3.90;;;27.60;91.70;;;;;;5071775;28;20069;-74
2021/10/28 07:02:16;;;;;;;5.65;4.05;;;27.20;92.30;;;;;;5073087;28;20436;-73
2021/10/28 07:03:31;;;;;;;5.90;3.90;;;27.10;92.60;;;;;;5073111;28;20027;-73
2021/10/28 07:06:37;;;;;;;5.20;4.00;;;27.00;92.50;;;;;;5071335;28;20043;-73
2021/10/28 07:08:58;;;;;;;4.65;4.25;;;26.90;92.10;;;;;;5070344;28;20037;-73
2021/10/28 07:11:29;;;;;;;4.75;3.70;;;26.70;92.00;;;;;;5071658;28;20077;-73
2021/10/28 07:13:58;;;;;;;5.15;4.13;;;26.50;91.00;;;;;;5071660;28;20124;-73
2021/10/28 07:16:37;;;;;;;3.95;3.50;;;26.50;91.60;;;;;;5072844;28;20025;-73
2021/10/28 07:22:16;;;;;;;4.65;3.58;;;26.30;92.10;;;;;;5072993;28;20078;-74
2021/10/28 07:35:48;;;;;;;2.92;2.70;;;26.00;92.30;;;;;;5077073;28;20034;-73
2021/10/28 08:15:18;;;;;;;3.63;3.05;;;;;;;;;;5069601;28;20116;-74
2021/10/28 08:19:47;;;;;;;3.25;2.50;;;;;;;;;;5076008;28;20020;-72
2021/10/28 08:30:21;;;;;;;5.18;2.65;;;;;;;;;;5076060;28;20047;-73
2021/10/28 08:32:48;;;;;;;2.85;2.40;;;;;;;;;;5075453;28;20016;-74
2021/10/28 08:35:15;;;;;;;5.05;2.90;;;;;;;;;;5075833;28;20021;-73
2021/10/28 08:37:57;;;;;;;3.40;2.67;;;;;;;;;;5075567;28;20024;-71
2021/10/28 08:40:25;;;;;;;4.93;2.75;;;;;;;;;;5075633;28;20457;-75
2021/10/28 08:42:53;;;;;;;5.30;3.25;;;;;;;;;;5074654;28;20028;-75
2021/10/28 08:45:21;;;;;;;3.65;3.33;;;;;;;;;;5075108;28;20021;-75
2021/10/28 08:47:51;;;;;;;5.03;3.50;;;;;;;;;;5075345;28;20024;-73
2021/10/28 08:55:37;;;;;;;10.23;6.32;;;;;;;;;;5075298;28;20388;-75
2021/10/28 09:25:48;;;;;;;9.55;5.57;;;;;;;;;;5074562;28;20118;-73
2021/10/28 09:28:29;;;;;;;9.45;5.65;;;;;;;;;;5074388;28;20021;-73
2021/10/28 09:31:07;;;;;;;12.38;5.93;;;;;;;;;;5074488;28;20048;-73
2021/10/28 09:45:52;;;;;;;8.10;7.20;;;22.60;99.90;;;;;;5074667;28;20078;-75
2021/10/28 09:51:02;;;;;;;8.90;7.95;;;22.40;99.90;;;;;;5073312;28;20033;-75
2021/10/28 09:53:38;;;;;;;10.50;8.20;;;22.30;99.90;;;;;;5073854;28;20393;-74
2021/10/28 09:58:51;;;;;;;11.27;8.90;;;22.20;99.90;;;;;;5074085;28;20039;-74
2021/10/28 10:02:17;;;;;;;9.25;8.25;;;22.10;99.90;;;;;;5073575;28;20388;-74
2021/10/28 10:04:44;;;;;;;10.82;8.45;;;22.00;99.90;;;;;;5030916;28;20036;-74
2021/10/28 10:07:21;;;;;;;8.85;8.05;;;21.90;99.90;;;;;;5070470;28;20033;-74
2021/10/28 10:09:48;;;;;;;9.25;8.35;;;21.90;99.90;;;;;;5073528;28;20032;-74
2021/10/28 10:12:17;;;;;;;11.35;8.63;;;21.90;99.90;;;;;;5072159;28;20074;-74
2021/10/28 10:14:46;;;;;;;13.38;8.15;;;21.90;99.90;;;;;;5073674;28;20032;-73
2021/10/28 10:17:16;;;;;;;9.68;8.10;;;21.90;99.90;;;;;;5073186;28;20524;-74
2021/10/28 10:19:46;;;;;;;9.98;8.85;;;21.80;99.90;;;;;;5073225;28;20469;-75
2021/10/28 10:22:45;;;;;;;14.43;8.63;;;21.80;99.90;;;;;;5072026;28;20108;-76
2021/10/28 11:19:26;;;;;;;11.43;8.93;;;20.90;99.90;;;;;;5073129;28;20508;-74
2021/10/28 11:21:57;;;;;;;9.90;8.98;;;20.90;99.90;;;;;;5072908;28;19916;-74
2021/10/28 11:30:17;;;;;;;8.20;7.47;;;21.00;99.90;;;;;;5072793;28;20067;-75
2021/10/28 12:22:22;;;;;;;9.15;8.25;;;20.40;99.90;;;;;;5075913;28;20082;-75
2021/10/28 12:28:11;;;;;;;9.23;8.23;;;20.30;99.90;;;;;;5075487;28;20078;-74
2021/10/28 12:45:22;;;;;;;8.93;8.10;;;20.10;99.90;;;;;;5075587;28;20085;-75
2021/10/28 12:51:41;;;;;;;7.78;7.03;;;20.10;99.90;;;;;;5075434;28;20111;-75
2021/10/28 12:54:06;;;;;;;9.35;7.65;;;20.00;99.90;;;;;;5073815;28;20466;-75
2021/10/28 13:02:36;;;;;;;9.15;8.25;;;19.90;99.90;;;;;;5075142;28;20552;-74
2021/10/28 13:05:40;;;;;;;8.60;7.85;;;19.80;99.90;;;;;;5074937;28;20032;-74
2021/10/28 13:54:55;;;;;;;10.52;9.52;;;19.10;99.90;;;;;;5073928;28;20085;-73
2021/10/28 14:00:20;;;;;;;10.18;9.27;;;19.00;99.90;;;;;;5073848;28;20207;-73
2021/10/28 14:22:08;;;;;;;10.30;9.50;;;19.10;99.90;;;;;;5073368;28;20060;-74
2021/10/28 14:35:50;;;;;;;10.15;9.38;;;18.90;99.90;;;;;;5073514;28;20055;-74
2021/10/28 15:28:35;;;;;;;8.57;7.78;;;19.00;99.90;;;;;;5072697;28;20032;-74
2021/10/28 15:30:52;;;;;;;8.35;7.70;;;19.00;99.90;;;;;;5067585;28;20485;-74
2021/10/28 15:36:13;;;;;;;7.45;6.80;;;19.00;99.90;;;;;;5072686;28;20082;-74
2021/10/28 15:55:23;;;;;;;6.82;6.22;;;19.00;99.90;;;;;;5076394;28;20028;-74
2021/10/28 16:22:12;;;;;;;5.90;5.32;;;18.80;99.90;;;;;;5075975;28;20035;-73
2021/10/28 16:24:39;;;;;;;5.75;5.20;;;18.70;99.90;;;;;;5074398;28;20501;-73
2021/10/28 16:27:07;;;;;;;6.10;5.60;;;18.70;99.90;;;;;;5074447;28;20024;-74
2021/10/28 16:29:34;;;;;;;6.05;5.50;;;18.70;99.90;;;;;;5074288;28;20116;-73
2021/10/28 16:32:02;;;;;;;6.43;5.93;;;18.60;99.90;;;;;;5075723;28;20358;-73
2021/10/28 16:34:30;;;;;;;6.55;5.95;;;18.60;99.90;;;;;;5075535;28;20020;-73
2021/10/28 16:36:58;;;;;;;5.88;5.38;;;18.70;99.90;;;;;;5074173;28;20109;-73
2021/10/28 16:39:26;;;;;;;7.68;4.80;;;18.60;99.90;;;;;;5075458;28;20032;-73
2021/10/28 16:41:57;;;;;;;4.15;3.92;;;18.70;99.90;;;;;;5075402;28;20020;-74
2021/10/28 16:44:25;;;;;;;6.18;4.75;;;18.60;99.90;;;;;;5075388;28;20029;-74
2021/10/28 16:46:54;;;;;;;6.32;4.20;;;18.70;99.90;;;;;;5075321;28;20119;-74
2021/10/28 16:49:22;;;;;;;4.47;4.10;;;18.80;99.90;;;;;;5075258;28;20017;-73
2021/10/28 16:51:50;;;;;;;4.18;3.88;;;18.80;99.90;;;;;;5075393;28;20040;-73
2021/10/28 16:54:18;;;;;;;5.38;4.43;;;18.90;99.90;;;;;;5075165;28;20074;-73
2021/10/28 16:56:47;;;;;;;5.07;4.68;;;18.90;99.90;;;;;;5075081;28;20024;-75
2021/10/28 16:59:15;;;;;;;4.72;4.32;;;19.00;99.90;;;;;;5073740;28;20031;-74
2021/10/28 17:01:42;;;;;;;4.50;4.20;;;19.00;99.90;;;;;;5074957;28;20020;-74
2021/10/28 17:04:10;;;;;;;5.55;5.10;;;19.00;99.90;;;;;;5073690;28;20028;-73
2021/10/28 17:06:37;;;;;;;5.53;4.50;;;19.00;99.90;;;;;;5073749;28;20029;-74
2021/10/28 17:09:08;;;;;;;4.65;4.30;;;19.00;99.90;;;;;;5074832;28;20074;-74
2021/10/28 17:11:37;;;;;;;5.80;4.55;;;19.00;99.90;;;;;;5074941;28;20082;-73
2021/10/28 17:14:06;;;;;;;4.57;4.30;;;19.00;99.90;;;;;;5074774;28;20032;-73
2021/10/28 17:16:35;;;;;;;4.95;4.40;;;19.10;99.90;;;;;;5074521;28;20469;-73
2021/10/28 17:19:04;;;;;;;4.55;4.25;;;19.10;99.90;;;;;;5074725;28;20397;-73
2021/10/28 17:21:31;;;;;;;4.47;3.88;;;19.10;99.90;;;;;;5073272;28;20028;-73
2021/10/28 17:24:04;;;;;;;4.20;3.75;;;19.20;99.90;;;;;;5074628;28;20017;-73
2021/10/28 17:26:33;;;;;;;4.22;3.90;;;19.20;99.90;;;;;;5074527;28;20143;-73
2021/10/28 17:29:04;;;;;;;4.45;3.97;;;19.30;99.90;;;;;;5073239;28;20074;-74
2021/10/28 17:31:33;;;;;;;4.20;4.00;;;19.30;99.90;;;;;;5073124;28;20017;-73
2021/10/28 17:34:02;;;;;;;4.20;3.90;;;19.30;99.90;;;;;;5074317;28;20047;-73
2021/10/28 17:36:30;;;;;;;4.50;4.00;;;19.40;99.90;;;;;;5073000;28;20024;-73
2021/10/28 17:38:57;;;;;;;4.32;3.92;;;19.30;99.90;;;;;;5072928;28;20397;-73
2021/10/28 17:41:26;;;;;;;4.15;3.42;;;19.40;99.90;;;;;;5074188;28;20496;-74
2021/10/28 17:43:56;;;;;;;4.13;3.30;;;19.50;99.90;;;;;;5072852;28;20029;-73
2021/10/28 17:46:26;;;;;;;3.72;3.53;;;19.50;99.90;;;;;;5072764;28;20024;-74
2021/10/28 17:48:54;;;;;;;4.97;3.58;;;19.60;99.90;;;;;;5074213;28;20025;-73
2021/10/28 17:51:22;;;;;;;3.40;3.10;;;19.70;99.90;;;;;;5072743;28;20055;-74
2021/10/28 17:53:50;;;;;;;5.05;3.33;;;19.70;99.90;;;;;;5072721;28;20021;-74
2021/10/28 17:56:18;;;;;;;4.00;3.30;;;19.80;99.70;;;;;;5073980;28;20028;-74
2021/10/28 17:58:46;;;;;;;3.05;2.85;;;19.70;99.80;;;;;;5073864;28;20107;-74
2021/10/28 18:01:18;;;;;;;3.58;3.10;;;19.70;99.90;;;;;;5073785;28;20439;-74
2021/10/28 18:03:46;;;;;;;3.67;3.33;;;19.70;99.90;;;;;;5073727;28;20074;-74
2021/10/28 18:06:13;;;;;;;3.58;3.00;;;19.70;99.70;;;;;;5073614;28;20020;-74
2021/10/28 18:08:41;;;;;;;3.40;3.13;;;19.70;99.90;;;;;;5072389;28;20025;-74
2021/10/28 18:11:08;;;;;;;3.22;3.03;;;19.70;99.30;;;;;;5073673;28;20023;-74
2021/10/28 18:13:36;;;;;;;3.92;3.15;;;19.80;98.90;;;;;;5073221;28;20038;-74
2021/10/28 18:16:06;;;;;;;3.80;3.35;;;19.90;98.40;;;;;;5073594;28;20056;-74
2021/10/28 18:18:36;;;;;;;4.20;3.20;;;19.90;98.20;;;;;;5073434;28;20114;-74
2021/10/28 18:21:04;;;;;;;3.58;3.30;;;20.00;98.00;;;;;;5073581;28;20021;-74
2021/10/28 18:23:33;;;;;;;3.95;3.50;;;20.10;97.50;;;;;;5072110;28;20020;-74
2021/10/28 18:26:01;;;;;;;3.72;3.42;;;20.20;97.30;;;;;;5071989;28;20029;-74
2021/10/28 18:28:28;;;;;;;5.13;4.00;;;20.30;96.90;;;;;;5073368;28;20017;-74
2021/10/28 18:30:57;;;;;;;3.90;3.60;;;20.30;97.00;;;;;;5072062;28;20441;-74
2021/10/28 18:33:24;;;;;;;4.05;3.67;;;20.20;96.90;;;;;;5073311;28;20447;-74
2021/10/28 18:35:52;;;;;;;3.97;3.63;;;20.20;97.10;;;;;;5071907;28;20112;-73
2021/10/28 18:38:21;;;;;;;4.30;3.80;;;20.20;97.40;;;;;;5073201;28;20485;-74
2021/10/28 18:40:48;;;;;;;5.60;3.67;;;20.20;97.30;;;;;;5073202;28;20070;-74
2021/10/28 18:43:17;;;;;;;3.88;3.58;;;20.30;96.50;;;;;;5071886;28;20024;-74
2021/10/28 18:45:45;;;;;;;3.25;3.00;;;20.30;96.50;;;;;;5071782;28;20028;-74
2021/10/28 18:48:13;;;;;;;3.80;3.50;;;20.20;96.70;;;;;;5073139;28;20017;-74
2021/10/28 18:50:41;;;;;;;4.03;3.55;;;20.20;97.00;;;;;;5073110;28;20423;-74
2021/10/28 18:53:08;;;;;;;4.45;3.55;;;20.20;97.40;;;;;;5073144;28;20073;-74
2021/10/28 18:55:39;;;;;;;4.13;3.60;;;20.20;97.70;;;;;;5072961;28;20492;-73
2021/10/28 18:58:07;;;;;;;3.50;3.30;;;20.10;97.60;;;;;;5072990;28;20077;-74
2021/10/28 19:00:36;;;;;;;4.10;3.70;;;20.10;97.70;;;;;;5072951;28;20032;-74
2021/10/28 19:03:03;;;;;;;4.75;3.38;;;20.10;97.80;;;;;;5072984;28;20017;-74
2021/10/28 19:05:31;;;;;;;4.30;3.83;;;20.20;97.50;;;;;;5071512;28;20418;-74
2021/10/28 19:07:58;;;;;;;6.65;3.60;;;20.20;97.70;;;;;;5071458;28;20020;-74
2021/10/28 19:10:26;;;;;;;4.32;3.90;;;20.30;96.70;;;;;;5072859;28;20013;-74
2021/10/28 19:12:53;;;;;;;4.93;3.55;;;20.40;96.80;;;;;;5072902;28;20012;-74
2021/10/28 19:15:20;;;;;;;3.97;3.58;;;20.40;96.40;;;;;;5072830;28;20024;-74
2021/10/28 19:17:50;;;;;;;4.15;3.85;;;20.40;96.40;;;;;;5071274;28;20394;-74
2021/10/28 19:20:18;;;;;;;3.60;3.30;;;20.40;95.80;;;;;;5072755;28;20024;-74
2021/10/28 19:22:46;;;;;;;3.47;3.17;;;20.40;95.20;;;;;;5072813;28;20056;-74
2021/10/28 19:25:13;;;;;;;3.92;3.50;;;20.40;95.40;;;;;;5074091;28;20027;-74
2021/10/28 19:27:41;;;;;;;3.10;2.80;;;20.50;95.10;;;;;;5076688;28;20032;-74
2021/10/28 19:30:24;;;;;;;4.72;3.00;;;20.50;95.20;;;;;;5075440;28;20033;-74
2021/10/28 19:32:55;;;;;;;5.82;2.88;;;20.50;95.30;;;;;;5075431;28;20370;-74
2021/10/28 19:35:25;;;;;;;3.38;2.75;;;20.50;95.10;;;;;;5076642;28;20020;-74
2021/10/28 19:48:13;;;;;;;3.25;2.95;;;20.50;95.80;;;;;;5076430;28;20058;-74
2021/10/28 19:50:40;;;;;;;3.47;3.15;;;20.50;95.60;;;;;;5074926;28;20389;-73
2021/10/28 19:53:07;;;;;;;3.15;2.95;;;20.50;95.60;;;;;;5076403;28;20477;-73
2021/10/28 19:55:38;;;;;;;3.20;2.83;;;20.60;95.50;;;;;;5074880;28;20028;-73
2021/10/28 19:58:08;;;;;;;4.07;2.90;;;20.60;95.50;;;;;;5074754;28;20025;-74
2021/10/28 20:00:47;;;;;;;3.28;2.97;;;20.70;95.20;;;;;;5076022;28;20392;-75
2021/10/28 20:13:04;;;;;;;4.90;3.55;;;20.90;95.00;;;;;;5075728;28;20028;-74
2021/10/28 20:22:11;;;;;;;3.47;3.00;;;21.20;94.60;;;;;;5074839;28;20106;-74
2021/10/28 20:24:39;;;;;;;3.00;2.80;;;21.20;94.30;;;;;;5074633;28;20028;-74
2021/10/28 20:27:06;;;;;;;3.95;3.10;;;21.20;95.10;;;;;;5073224;28;20405;-74
2021/10/28 20:29:34;;;;;;;3.50;3.20;;;21.30;94.70;;;;;;5074675;28;20052;-74
2021/10/28 20:32:02;;;;;;;4.22;3.22;;;21.30;94.70;;;;;;5073033;28;20039;-74
2021/10/28 20:34:48;;;;;;;3.47;3.17;;;21.30;94.70;;;;;;5074256;28;20012;-73
2021/10/28 20:37:16;;;;;;;4.53;3.53;;;21.40;94.80;;;;;;5073020;28;20062;-74
2021/10/28 20:39:46;;;;;;;3.78;3.30;;;21.50;95.00;;;;;;5073176;28;20032;-74
2021/10/28 20:42:16;;;;;;;3.25;3.00;;;21.50;94.50;;;;;;5072891;28;20112;-73
2021/10/28 20:44:45;;;;;;;4.10;3.53;;;21.50;94.20;;;;;;5072972;28;20028;-74
2021/10/28 20:47:13;;;;;;;3.60;3.30;;;21.60;94.90;;;;;;5072816;28;20401;-74
2021/10/28 20:49:40;;;;;;;3.70;3.40;;;21.70;94.40;;;;;;5074082;28;20444;-74
2021/10/28 20:52:08;;;;;;;3.30;3.00;;;21.70;94.60;;;;;;5072638;28;20465;-73
2021/10/28 20:54:36;;;;;;;4.22;3.20;;;21.90;94.50;;;;;;5073989;28;20520;-74
2021/10/28 20:57:05;;;;;;;3.75;3.20;;;21.80;94.40;;;;;;5072676;28;20493;-73
2021/10/28 20:59:32;;;;;;;4.00;2.90;;;21.90;94.10;;;;;;5073938;28;20043;-73
2021/10/28 21:02:00;;;;;;;3.75;3.20;;;22.00;93.60;;;;;;5073774;28;20027;-73
2021/10/28 21:04:27;;;;;;;3.90;3.47;;;22.20;92.90;;;;;;5073767;28;20105;-72
2021/10/28 21:06:55;;;;;;;4.28;3.28;;;22.20;92.90;;;;;;5073618;28;20031;-73
2021/10/28 21:09:23;;;;;;;6.32;3.20;;;22.30;93.10;;;;;;5073876;28;20579;-72
2021/10/28 21:11:50;;;;;;;6.40;3.33;;;22.40;92.30;;;;;;5073666;28;20100;-73
2021/10/28 21:14:18;;;;;;;3.13;2.92;;;22.50;92.40;;;;;;5073578;28;20016;-74
2021/10/28 21:16:45;;;;;;;5.93;3.07;;;22.60;92.70;;;;;;4983464;28;2528771;-75
2021/10/28 21:19:13;;;;;;;4.15;3.40;;;22.60;92.40;;;;;;5074617;28;20477;-74
2021/10/28 21:21:43;;;;;;;7.95;3.45;;;22.80;92.40;;;;;;5074549;28;20025;-74
2021/10/28 21:24:13;;;;;;;5.40;3.20;;;22.90;91.90;;;;;;5074511;28;20385;-74
2021/10/28 21:26:40;;;;;;;6.07;3.83;;;22.90;91.60;;;;;;5074426;28;20047;-72
2021/10/28 21:29:08;;;;;;;5.68;3.72;;;23.10;93.40;;;;;;5074335;28;20043;-71
2021/10/28 21:31:35;;;;;;;4.47;3.40;;;23.30;91.90;;;;;;5073001;28;20025;-71
2021/10/28 21:34:02;;;;;;;4.82;3.33;;;23.40;91.60;;;;;;5073035;28;20050;-72
2021/10/28 21:36:30;;;;;;;4.20;2.90;;;23.50;91.20;;;;;;5074233;28;20150;-71
2021/10/28 21:38:58;;;;;;;3.47;3.10;;;23.70;90.80;;;;;;5074312;28;20025;-72
2021/10/28 21:41:25;;;;;;;3.95;3.13;;;24.00;90.50;;;;;;5072815;28;20028;-72
2021/10/28 21:43:53;;;;;;;2.80;2.60;;;24.20;90.30;;;;;;5072742;28;20485;-71
2021/10/28 21:46:22;;;;;;;2.80;2.60;;;24.40;90.60;;;;;;5072264;28;20028;-72
2021/10/28 21:48:49;;;;;;;4.18;2.90;;;24.40;89.20;;;;;;5073676;28;20017;-72